createdAt,value
2022-10-22T00:01:36.952Z,2.63
2022-10-22T00:04:04.017Z,2.47
2022-10-22T00:06:30.592Z,2.88
2022-10-22T00:08:56.977Z,2.58
2022-10-22T00:11:23.438Z,2.85
2022-10-22T00:13:50.507Z,2.47
2022-10-22T00:16:16.987Z,2.15
2022-10-22T00:18:43.397Z,2.60
2022-10-22T00:21:10.061Z,2.78
2022-10-22T00:23:36.492Z,2.85
2022-10-22T00:26:02.952Z,2.97
2022-10-22T00:28:29.351Z,3.00
2022-10-22T00:31:00.330Z,3.20
2022-10-22T00:33:28.368Z,2.80
2022-10-22T00:35:55.037Z,2.40
2022-10-22T00:38:21.677Z,2.60
2022-10-22T00:40:48.202Z,2.20
2022-10-22T00:43:17.393Z,2.60
2022-10-22T00:45:44.609Z,2.70
2022-10-22T00:48:13.757Z,2.25
2022-10-22T00:50:45.931Z,2.88
2022-10-22T00:53:37.331Z,2.60
2022-10-22T00:56:04.390Z,2.50
2022-10-22T00:58:34.847Z,2.65
2022-10-22T01:01:02.570Z,2.63
2022-10-22T01:03:29.317Z,2.50
2022-10-22T01:06:00.838Z,2.60
2022-10-22T01:08:30.555Z,2.30
2022-10-22T01:11:15.439Z,2.85
2022-10-22T01:14:04.612Z,2.75
2022-10-22T01:16:43.656Z,2.83
2022-10-22T01:19:54.586Z,2.45
2022-10-22T01:22:43.959Z,3.17
2022-10-22T01:25:26.859Z,2.83
2022-10-22T01:27:53.776Z,2.75
2022-10-22T01:30:20.750Z,2.40
2022-10-22T01:32:54.486Z,2.83
2022-10-22T01:35:29.171Z,2.88
2022-10-22T01:38:00.898Z,3.08
2022-10-22T01:40:28.902Z,2.72
2022-10-22T01:43:00.678Z,2.85
2022-10-22T01:45:30.222Z,2.80
2022-10-22T01:48:14.729Z,2.80
2022-10-22T01:51:02.201Z,2.50
2022-10-22T01:53:40.923Z,3.13
2022-10-22T01:56:16.277Z,3.50
2022-10-22T01:59:08.196Z,3.05
2022-10-22T02:01:54.530Z,2.80
2022-10-22T02:04:29.960Z,2.55
2022-10-22T02:07:01.303Z,2.72
2022-10-22T02:09:29.636Z,2.78
2022-10-22T02:11:59.689Z,3.30
2022-10-22T02:14:29.469Z,2.55
2022-10-22T02:16:58.397Z,3.10
2022-10-22T02:19:27.651Z,2.60
2022-10-22T02:21:54.989Z,2.83
2022-10-22T02:24:22.345Z,4.18
2022-10-22T02:27:33.442Z,4.15
2022-10-22T02:30:12.878Z,3.50
2022-10-22T02:33:06.710Z,2.70
2022-10-22T02:35:34.090Z,2.72
2022-10-22T02:38:01.391Z,2.45
2022-10-22T02:40:30.510Z,2.13
2022-10-22T02:42:56.954Z,3.63
2022-10-22T02:45:23.621Z,3.03
2022-10-22T02:47:50.193Z,2.72
2022-10-22T02:50:17.065Z,3.13
2022-10-22T02:52:43.671Z,4.82
2022-10-22T02:55:10.645Z,3.58
2022-10-22T02:57:37.376Z,2.78
2022-10-22T03:00:06.207Z,3.13
2022-10-22T03:02:32.589Z,2.88
2022-10-22T03:04:59.292Z,2.97
2022-10-22T03:07:25.664Z,3.10
2022-10-22T03:09:52.207Z,2.63
2022-10-22T03:12:18.654Z,3.13
2022-10-22T03:14:45.081Z,3.70
2022-10-22T03:17:11.597Z,3.08
2022-10-22T03:19:37.993Z,3.25
2022-10-22T03:22:11.417Z,3.33
2022-10-22T03:24:44.262Z,3.28
2022-10-22T03:27:14.026Z,3.30
2022-10-22T03:29:41.884Z,3.70
2022-10-22T03:32:08.570Z,3.13
2022-10-22T03:34:35.328Z,4.32
2022-10-22T03:37:02.431Z,3.40
2022-10-22T03:39:31.849Z,3.63
2022-10-22T03:41:58.680Z,3.30
2022-10-22T03:44:25.901Z,4.07
2022-10-22T03:46:52.266Z,3.60
2022-10-22T03:49:18.677Z,3.60
2022-10-22T03:51:45.198Z,3.33
2022-10-22T03:54:11.751Z,3.65
2022-10-22T03:56:38.148Z,3.38
2022-10-22T03:59:04.714Z,4.72
2022-10-22T04:01:31.508Z,4.13
2022-10-22T04:03:58.435Z,3.83
2022-10-22T04:06:25.213Z,3.42
2022-10-22T04:08:51.652Z,3.53
2022-10-22T04:11:18.313Z,3.60
2022-10-22T04:13:44.862Z,3.38
2022-10-22T04:16:19.544Z,3.78
2022-10-22T04:18:47.560Z,3.05
2022-10-22T04:21:16.684Z,3.63
2022-10-22T04:23:48.012Z,3.10
2022-10-22T04:26:15.646Z,3.38
2022-10-22T04:28:42.848Z,3.45
2022-10-22T04:31:11.290Z,3.63
2022-10-22T04:33:38.179Z,3.80
2022-10-22T04:36:13.552Z,3.90
2022-10-22T04:38:41.133Z,4.10
2022-10-22T04:41:17.869Z,4.03
2022-10-22T04:43:45.451Z,4.35
2022-10-22T04:46:13.522Z,3.95
2022-10-22T04:48:42.401Z,3.70
2022-10-22T04:51:12.125Z,3.75
2022-10-22T04:53:40.437Z,3.85
2022-10-22T04:56:08.035Z,3.63
2022-10-22T04:58:34.650Z,3.88
2022-10-22T05:01:01.198Z,4.35
2022-10-22T05:03:27.635Z,4.20
2022-10-22T05:05:53.977Z,4.18
2022-10-22T05:08:20.355Z,4.55
2022-10-22T05:10:46.730Z,4.28
2022-10-22T05:13:13.152Z,4.10
2022-10-22T05:15:39.496Z,4.53
2022-10-22T05:18:05.905Z,4.13
2022-10-22T05:20:32.244Z,4.82
2022-10-22T05:22:58.643Z,4.72
2022-10-22T05:25:25.109Z,4.43
2022-10-22T05:27:51.542Z,4.68
2022-10-22T05:30:18.040Z,4.90
2022-10-22T05:32:44.873Z,5.07
2022-10-22T05:35:11.254Z,5.10
2022-10-22T05:37:37.784Z,4.90
2022-10-22T05:40:19.170Z,4.57
2022-10-22T05:42:52.152Z,4.75
2022-10-22T05:45:18.554Z,5.53
2022-10-22T05:47:44.961Z,5.68
2022-10-22T05:50:11.364Z,5.22
2022-10-22T05:52:37.891Z,5.35
2022-10-22T05:55:04.897Z,5.30
2022-10-22T05:57:31.254Z,5.15
2022-10-22T05:59:57.651Z,5.28
2022-10-22T06:02:24.195Z,5.28
2022-10-22T06:04:50.642Z,5.20
2022-10-22T06:07:17.062Z,5.43
2022-10-22T06:09:43.441Z,5.22
2022-10-22T06:12:12.224Z,5.32
2022-10-22T06:14:38.625Z,5.50
2022-10-22T06:17:04.946Z,5.22
2022-10-22T06:19:31.361Z,4.95
2022-10-22T06:21:57.798Z,5.20
2022-10-22T06:24:24.250Z,4.65
2022-10-22T06:26:51.800Z,5.90
2022-10-22T06:29:18.777Z,4.80
2022-10-22T06:31:45.267Z,4.57
2022-10-22T06:34:13.407Z,5.10
2022-10-22T06:36:43.344Z,4.13
2022-10-22T06:39:12.885Z,4.40
2022-10-22T06:41:39.406Z,4.38
2022-10-22T06:44:05.833Z,4.53
2022-10-22T06:46:32.685Z,4.22
2022-10-22T06:49:01.456Z,4.47
2022-10-22T06:51:28.660Z,4.28
2022-10-22T06:53:57.411Z,4.45
2022-10-22T06:56:26.080Z,5.03
2022-10-22T06:58:53.997Z,4.63
2022-10-22T07:01:23.485Z,4.43
2022-10-22T07:03:51.583Z,4.30
2022-10-22T07:06:19.091Z,4.97
2022-10-22T07:08:45.672Z,3.90
2022-10-22T07:11:45.761Z,4.70
2022-10-22T07:14:13.321Z,3.90
2022-10-22T07:16:42.981Z,3.92
2022-10-22T07:19:09.327Z,3.95
2022-10-22T07:21:35.744Z,4.00
2022-10-22T07:24:02.221Z,3.90
2022-10-22T07:26:30.940Z,3.30
2022-10-22T07:28:57.701Z,3.78
2022-10-22T07:31:24.038Z,3.65
2022-10-22T07:33:50.765Z,2.95
2022-10-22T07:36:17.921Z,2.50
2022-10-22T07:38:49.275Z,3.25
2022-10-22T07:41:16.755Z,3.00
2022-10-22T07:43:43.231Z,3.35
2022-10-22T07:46:09.643Z,3.45
2022-10-22T07:48:37.077Z,2.72
2022-10-22T07:51:03.688Z,3.53
2022-10-22T07:53:30.255Z,2.90
2022-10-22T07:55:56.834Z,3.20
2022-10-22T07:58:24.021Z,3.13
2022-10-22T08:00:51.142Z,3.22
2022-10-22T08:03:18.503Z,3.30
2022-10-22T08:05:45.665Z,3.60
2022-10-22T08:08:14.072Z,3.42
2022-10-22T08:10:40.763Z,3.05
2022-10-22T08:13:07.630Z,3.13
2022-10-22T08:15:34.785Z,3.65
2022-10-22T08:18:01.215Z,3.13
2022-10-22T08:20:27.688Z,3.22
2022-10-22T08:22:54.366Z,3.10
2022-10-22T08:25:20.807Z,3.60
2022-10-22T08:27:47.365Z,3.20
2022-10-22T08:30:14.617Z,3.08
2022-10-22T08:32:41.565Z,3.60
2022-10-22T08:35:08.246Z,3.25
2022-10-22T08:37:34.749Z,3.35
2022-10-22T08:40:01.152Z,3.55
2022-10-22T08:43:02.927Z,3.47
2022-10-22T08:45:32.727Z,3.25
2022-10-22T08:47:59.550Z,3.30
2022-10-22T08:50:45.480Z,3.30
2022-10-22T08:53:16.265Z,3.40
2022-10-22T08:55:43.658Z,3.33
2022-10-22T08:58:29.525Z,3.10
2022-10-22T09:01:00.729Z,2.97
2022-10-22T09:03:44.197Z,2.92
2022-10-22T09:06:18.654Z,2.83
2022-10-22T09:08:46.682Z,2.53
2022-10-22T09:11:13.143Z,2.50
2022-10-22T09:13:44.903Z,2.53
2022-10-22T09:16:15.466Z,1.98
2022-10-22T09:18:51.935Z,2.20
2022-10-22T09:21:42.704Z,2.08
2022-10-22T09:24:24.298Z,2.10
2022-10-22T09:26:51.127Z,2.17
2022-10-22T09:29:24.467Z,2.03
2022-10-22T09:31:50.912Z,2.20
2022-10-22T09:34:21.917Z,2.00
2022-10-22T09:36:56.931Z,3.38
2022-10-22T09:39:29.566Z,2.38
2022-10-22T09:41:56.043Z,3.10
2022-10-22T09:44:22.609Z,3.50
2022-10-22T09:46:49.886Z,2.47
2022-10-22T09:49:19.464Z,3.17
2022-10-22T09:51:58.839Z,2.50
2022-10-22T09:54:34.045Z,2.17
2022-10-22T09:57:05.301Z,2.10
2022-10-22T09:59:36.869Z,1.50
2022-10-22T10:02:37.646Z,1.83
2022-10-22T10:05:06.748Z,1.67
2022-10-22T10:07:35.074Z,1.65
2022-10-22T10:10:02.922Z,1.27
2022-10-22T10:12:52.585Z,1.70
2022-10-22T10:15:30.561Z,2.15
2022-10-22T10:18:06.074Z,2.17
2022-10-22T10:20:45.706Z,2.50
2022-10-22T10:23:33.456Z,2.17
2022-10-22T10:26:18.519Z,1.88
2022-10-22T10:29:10.016Z,1.95
2022-10-22T10:32:14.137Z,2.25
2022-10-22T10:34:43.498Z,1.73
2022-10-22T10:37:17.829Z,1.80
2022-10-22T10:40:21.708Z,1.50
2022-10-22T10:43:09.544Z,1.60
2022-10-22T10:46:13.923Z,1.38
2022-10-22T10:48:45.928Z,1.40
2022-10-22T10:51:27.952Z,1.30
2022-10-22T10:54:23.498Z,2.13
2022-10-22T10:59:28.548Z,1.30
2022-10-22T11:02:32.548Z,1.50
2022-10-22T11:05:14.265Z,1.48
2022-10-22T11:07:48.049Z,1.40
2022-10-22T11:10:28.693Z,1.20
2022-10-22T11:13:02.195Z,0.95
2022-10-22T11:15:32.231Z,1.63
2022-10-22T11:18:07.489Z,1.20
2022-10-22T11:20:47.129Z,1.50
2022-10-22T11:23:24.880Z,0.98
2022-10-22T11:25:51.565Z,1.20
2022-10-22T11:28:30.450Z,1.13
2022-10-22T11:31:09.848Z,1.08
2022-10-22T11:34:28.525Z,1.15
2022-10-22T11:36:55.241Z,1.02
2022-10-22T11:39:34.128Z,1.83
2022-10-22T11:42:09.596Z,1.20
2022-10-22T11:45:02.922Z,1.20
2022-10-22T11:47:34.208Z,2.20
2022-10-22T11:50:22.944Z,0.98
2022-10-22T11:52:54.002Z,1.23
2022-10-22T11:55:48.276Z,1.20
2022-10-22T11:58:30.601Z,0.88
2022-10-22T12:00:58.540Z,1.05
2022-10-22T12:03:30.656Z,1.23
2022-10-22T12:06:12.614Z,1.00
2022-10-22T12:08:58.375Z,1.00
2022-10-22T12:11:50.202Z,0.80
2022-10-22T12:14:40.666Z,1.35
2022-10-22T12:17:14.195Z,0.93
2022-10-22T12:19:44.700Z,1.23
2022-10-22T12:22:19.454Z,0.85
2022-10-22T12:27:40.214Z,0.90
2022-10-22T12:30:19.457Z,1.02
2022-10-22T12:32:46.103Z,0.85
2022-10-22T12:35:21.321Z,1.42
2022-10-22T12:37:55.020Z,1.45
2022-10-22T12:40:45.807Z,0.95
2022-10-22T12:43:17.609Z,1.10
2022-10-22T12:45:47.211Z,0.88
2022-10-22T12:48:26.929Z,1.00
2022-10-22T12:50:56.572Z,1.00
2022-10-22T12:53:29.505Z,1.13
2022-10-22T12:56:00.280Z,0.90
2022-10-22T12:58:29.394Z,1.08
2022-10-22T13:00:58.379Z,1.20
2022-10-22T13:03:34.856Z,1.10
2022-10-22T13:06:19.740Z,1.08
2022-10-22T13:08:58.533Z,0.90
2022-10-22T13:11:39.820Z,1.20
2022-10-22T13:14:35.067Z,1.42
2022-10-22T13:17:18.648Z,1.20
2022-10-22T13:19:50.097Z,1.30
2022-10-22T13:22:31.024Z,1.33
2022-10-22T13:25:04.828Z,1.13
2022-10-22T13:27:31.760Z,1.30
2022-10-22T13:30:02.365Z,1.10
2022-10-22T13:32:32.051Z,1.83
2022-10-22T13:35:01.283Z,0.90
2022-10-22T13:37:31.022Z,0.93
2022-10-22T13:39:57.464Z,1.15
2022-10-22T13:42:24.326Z,1.10
2022-10-22T13:44:50.883Z,0.85
2022-10-22T13:47:28.726Z,1.15
2022-10-22T13:50:17.909Z,0.88
2022-10-22T13:52:47.541Z,0.75
2022-10-22T13:55:25.367Z,0.88
2022-10-22T13:57:55.114Z,0.70
2022-10-22T14:00:22.475Z,0.80
2022-10-22T14:02:52.244Z,0.80
2022-10-22T14:05:19.826Z,1.50
2022-10-22T14:07:46.687Z,0.80
2022-10-22T14:10:21.301Z,0.80
2022-10-22T14:12:52.356Z,0.90
2022-10-22T14:15:23.766Z,1.08
2022-10-22T14:17:54.707Z,1.33
2022-10-22T14:20:42.119Z,0.90
2022-10-22T14:23:29.541Z,1.02
2022-10-22T14:25:56.881Z,1.08
2022-10-22T14:28:23.500Z,0.98
2022-10-22T14:30:51.468Z,1.23
2022-10-22T14:33:28.958Z,1.20
2022-10-22T14:35:58.246Z,1.15
2022-10-22T14:38:24.631Z,1.00
2022-10-22T14:40:51.104Z,0.80
2022-10-22T14:43:23.921Z,1.27
2022-10-22T14:45:50.600Z,1.35
2022-10-22T14:50:49.087Z,1.25
2022-10-22T14:53:16.803Z,1.10
2022-10-22T14:55:47.383Z,0.93
2022-10-22T14:58:14.315Z,1.13
2022-10-22T15:00:42.060Z,0.98
2022-10-22T15:03:09.320Z,1.10
2022-10-22T15:05:36.450Z,0.90
2022-10-22T15:08:03.260Z,1.00
2022-10-22T15:10:29.699Z,1.02
2022-10-22T15:12:56.050Z,1.00
2022-10-22T15:15:23.233Z,1.25
2022-10-22T15:17:50.961Z,1.05
2022-10-22T15:20:17.334Z,1.25
2022-10-22T15:22:44.234Z,1.10
2022-10-22T15:25:13.046Z,1.20
2022-10-22T15:27:39.487Z,2.15
2022-10-22T15:30:07.179Z,1.52
2022-10-22T15:32:34.064Z,1.30
2022-10-22T15:35:01.521Z,1.17
2022-10-22T15:37:27.978Z,1.42
2022-10-22T15:39:54.412Z,1.20
2022-10-22T15:42:20.915Z,1.30
2022-10-22T15:44:47.272Z,1.50
2022-10-22T15:47:13.740Z,1.42
2022-10-22T15:49:41.695Z,1.30
2022-10-22T15:52:09.790Z,1.88
2022-10-22T15:54:36.212Z,2.58
2022-10-22T15:57:05.781Z,1.73
2022-10-22T15:59:32.237Z,1.80
2022-10-22T16:01:58.639Z,1.60
2022-10-22T16:04:25.186Z,1.65
2022-10-22T16:06:52.799Z,2.00
2022-10-22T16:09:23.706Z,2.33
2022-10-22T16:11:51.201Z,2.10
2022-10-22T16:14:20.554Z,1.70
2022-10-22T16:16:50.996Z,1.85
2022-10-22T16:19:19.130Z,2.13
2022-10-22T16:21:45.689Z,1.70
2022-10-22T16:24:12.531Z,1.90
2022-10-22T16:26:39.064Z,2.45
2022-10-22T16:29:07.114Z,2.30
2022-10-22T16:31:33.572Z,2.00
2022-10-22T16:34:00.200Z,1.75
2022-10-22T16:36:26.618Z,2.08
2022-10-22T16:38:53.080Z,1.83
2022-10-22T16:41:21.938Z,2.30
2022-10-22T16:43:51.125Z,1.63
2022-10-22T16:46:20.701Z,3.42
2022-10-22T16:48:52.910Z,1.88
2022-10-22T16:51:22.245Z,2.03
2022-10-22T16:53:49.183Z,1.63
2022-10-22T16:56:17.019Z,1.63
2022-10-22T16:58:45.846Z,3.20
2022-10-22T17:01:18.000Z,2.47
2022-10-22T17:03:47.869Z,2.22
2022-10-22T17:06:14.843Z,1.52
2022-10-22T17:08:42.148Z,1.50
2022-10-22T17:11:16.922Z,2.20
2022-10-22T17:13:45.223Z,2.22
2022-10-22T17:16:13.922Z,2.00
2022-10-22T17:18:42.554Z,1.77
2022-10-22T17:21:10.971Z,2.17
2022-10-22T17:23:37.755Z,1.50
2022-10-22T17:26:12.247Z,1.60
2022-10-22T17:28:38.981Z,2.88
2022-10-22T17:31:17.653Z,2.75
2022-10-22T17:33:44.522Z,2.33
2022-10-22T17:36:34.843Z,2.03
2022-10-22T17:39:06.130Z,4.13
2022-10-22T17:41:35.110Z,3.70
2022-10-22T17:44:03.347Z,4.20
2022-10-22T17:46:31.693Z,3.38
2022-10-22T17:49:00.662Z,4.53
2022-10-22T17:51:29.240Z,3.13
2022-10-22T17:53:55.706Z,4.00
2022-10-22T17:56:27.976Z,3.67
2022-10-22T17:58:54.489Z,3.70
2022-10-22T18:01:32.584Z,3.90
2022-10-22T18:04:02.819Z,3.42
2022-10-22T18:06:29.685Z,3.58
2022-10-22T18:08:56.284Z,3.08
2022-10-22T18:11:24.873Z,3.63
2022-10-22T18:13:56.681Z,3.42
2022-10-22T18:16:23.452Z,4.25
2022-10-22T18:18:53.114Z,3.92
2022-10-22T18:21:22.328Z,4.50
2022-10-22T18:23:48.810Z,4.10
2022-10-22T18:26:17.912Z,4.63
2022-10-22T18:28:45.853Z,3.63
2022-10-22T18:31:24.890Z,3.50
2022-10-22T18:36:23.170Z,4.78
2022-10-22T18:38:54.419Z,3.22
2022-10-22T18:41:21.857Z,3.40
2022-10-22T18:44:00.817Z,3.35
2022-10-22T18:46:39.487Z,2.80
2022-10-22T18:49:07.158Z,3.35
2022-10-22T18:51:36.097Z,2.67
2022-10-22T18:54:11.226Z,3.20
2022-10-22T18:56:44.950Z,2.83
2022-10-22T18:59:25.487Z,3.05
2022-10-22T19:01:57.520Z,3.08
2022-10-22T19:04:23.971Z,3.08
2022-10-22T19:06:50.667Z,3.10
2022-10-22T19:09:17.405Z,3.80
2022-10-22T19:11:45.102Z,3.17
2022-10-22T19:14:13.254Z,3.30
2022-10-22T19:16:39.669Z,3.53
2022-10-22T19:19:11.060Z,3.67
2022-10-22T19:21:38.462Z,3.70
2022-10-22T19:24:05.471Z,3.95
2022-10-22T19:26:32.098Z,6.03
2022-10-22T19:28:59.652Z,3.75
2022-10-22T19:31:27.196Z,4.10
2022-10-22T19:33:55.237Z,3.47
2022-10-22T19:36:24.452Z,4.10
2022-10-22T19:38:51.540Z,4.30
2022-10-22T19:41:20.230Z,4.63
2022-10-22T19:43:49.608Z,4.40
2022-10-22T19:46:19.959Z,3.75
2022-10-22T19:48:46.909Z,4.68
2022-10-22T19:51:19.025Z,4.18
2022-10-22T19:53:45.442Z,4.10
2022-10-22T19:56:12.576Z,4.38
2022-10-22T19:58:39.388Z,3.90
2022-10-22T20:01:10.787Z,4.13
2022-10-22T20:03:38.055Z,5.07
2022-10-22T20:06:07.630Z,5.22
2022-10-22T20:08:37.726Z,3.83
2022-10-22T20:11:13.027Z,3.95
2022-10-22T20:16:17.264Z,4.03
2022-10-22T20:18:43.768Z,3.70
2022-10-22T20:21:15.906Z,4.13
2022-10-22T20:23:43.360Z,3.63
2022-10-22T20:26:09.928Z,3.50
2022-10-22T20:28:39.270Z,3.33
2022-10-22T20:31:12.283Z,3.20
2022-10-22T20:33:39.025Z,2.92
2022-10-22T20:36:08.308Z,2.90
2022-10-22T20:41:08.888Z,2.60
2022-10-22T20:43:35.557Z,2.45
2022-10-22T20:46:03.816Z,2.45
2022-10-22T20:48:31.413Z,2.75
2022-10-22T20:50:59.112Z,2.65
2022-10-22T20:53:25.939Z,2.67
2022-10-22T20:55:56.664Z,2.58
2022-10-22T20:58:25.943Z,2.75
2022-10-22T21:00:55.034Z,2.95
2022-10-22T21:03:21.621Z,2.45
2022-10-22T21:05:48.260Z,2.92
2022-10-22T21:08:19.183Z,2.58
2022-10-22T21:10:48.699Z,2.88
2022-10-22T21:13:16.621Z,2.33
2022-10-22T21:15:43.110Z,3.00
2022-10-22T21:18:09.688Z,2.63
2022-10-22T21:20:36.193Z,2.50
2022-10-22T21:23:03.215Z,2.85
2022-10-22T21:25:29.641Z,2.20
2022-10-22T21:27:56.068Z,2.42
2022-10-22T21:30:22.494Z,2.42
2022-10-22T21:32:49.030Z,2.97
2022-10-22T21:35:15.636Z,2.30
2022-10-22T21:37:42.165Z,2.80
2022-10-22T21:40:09.315Z,2.03
2022-10-22T21:42:37.736Z,2.25
2022-10-22T21:45:07.934Z,2.35
2022-10-22T21:47:38.720Z,2.33
2022-10-22T21:50:05.535Z,1.80
2022-10-22T21:52:31.915Z,2.20
2022-10-22T21:54:58.359Z,2.75
2022-10-22T21:57:24.772Z,2.28
2022-10-22T21:59:51.168Z,2.50
2022-10-22T22:02:17.546Z,2.30
2022-10-22T22:04:44.132Z,2.20
2022-10-22T22:07:10.512Z,2.10
2022-10-22T22:09:37.095Z,2.63
2022-10-22T22:12:03.602Z,2.15
2022-10-22T22:14:30.721Z,2.67
2022-10-22T22:16:57.070Z,2.17
2022-10-22T22:19:23.460Z,2.42
2022-10-22T22:21:52.308Z,2.78
2022-10-22T22:24:18.733Z,1.95
2022-10-22T22:26:45.167Z,2.20
2022-10-22T22:29:11.711Z,2.38
2022-10-22T22:31:38.524Z,2.58
2022-10-22T22:34:07.696Z,2.67
2022-10-22T22:36:37.457Z,2.72
2022-10-22T22:39:05.818Z,2.17
2022-10-22T22:41:32.631Z,2.70
2022-10-22T22:43:59.062Z,1.92
2022-10-22T22:46:25.675Z,2.45
2022-10-22T22:48:52.447Z,2.22
2022-10-22T22:51:18.896Z,2.33
2022-10-22T22:53:45.581Z,1.92
2022-10-22T22:56:15.161Z,2.10
2022-10-22T22:58:42.629Z,3.08
2022-10-22T23:01:23.619Z,2.58
2022-10-22T23:04:02.651Z,2.55
2022-10-22T23:06:32.012Z,2.00
2022-10-22T23:08:59.141Z,2.00
2022-10-22T23:11:27.605Z,2.05
2022-10-22T23:13:56.475Z,2.40
2022-10-22T23:16:25.291Z,2.13
2022-10-22T23:18:53.427Z,2.05
2022-10-22T23:21:25.497Z,2.20
2022-10-22T23:23:54.867Z,2.00
2022-10-22T23:26:30.120Z,2.88
2022-10-22T23:29:04.246Z,1.77
2022-10-22T23:31:30.775Z,1.90
2022-10-22T23:33:57.500Z,2.15
2022-10-22T23:36:23.906Z,2.28
2022-10-22T23:38:50.354Z,2.00
2022-10-22T23:41:17.486Z,1.90
2022-10-22T23:43:43.991Z,2.22
2022-10-22T23:46:12.370Z,2.13
2022-10-22T23:48:39.665Z,1.88
2022-10-22T23:51:12.034Z,2.00
2022-10-22T23:53:41.172Z,1.90
2022-10-22T23:56:18.228Z,1.90
2022-10-22T23:58:45.412Z,1.63
